createdAt,value
2023-02-13T00:00:50.980Z,973.26
2023-02-13T00:01:50.969Z,973.21
2023-02-13T00:02:50.944Z,973.23
2023-02-13T00:03:50.925Z,973.21
2023-02-13T00:04:50.907Z,973.22
2023-02-13T00:05:50.924Z,973.2
2023-02-13T00:06:50.875Z,973.18
2023-02-13T00:07:50.862Z,973.16
2023-02-13T00:08:50.836Z,973.16
2023-02-13T00:09:50.825Z,973.12
2023-02-13T00:10:50.806Z,973.15
2023-02-13T00:11:50.786Z,973.15
2023-02-13T00:12:50.767Z,973.1
2023-02-13T00:13:50.751Z,973.1
2023-02-13T00:14:50.762Z,973.09
2023-02-13T00:15:50.742Z,973.08
2023-02-13T00:16:50.699Z,973.04
2023-02-13T00:17:50.681Z,973.08
2023-02-13T00:18:50.667Z,973.05
2023-02-13T00:19:50.645Z,973.04
2023-02-13T00:20:50.633Z,973.07
2023-02-13T00:21:50.676Z,973.06
2023-02-13T00:22:50.594Z,973.07
2023-02-13T00:23:50.578Z,973.09
2023-02-13T00:24:50.563Z,973.12
2023-02-13T00:25:50.541Z,973.08
2023-02-13T00:26:50.525Z,973.11
2023-02-13T00:27:50.506Z,973.06
2023-02-13T00:28:50.491Z,973.06
2023-02-13T00:29:50.468Z,973.06
2023-02-13T00:30:50.559Z,973.1
2023-02-13T00:31:50.639Z,973.09
2023-02-13T00:32:50.430Z,973.06
2023-02-13T00:33:50.396Z,973.05
2023-02-13T00:34:50.378Z,973.08
2023-02-13T00:35:50.362Z,973.02
2023-02-13T00:36:50.344Z,973.02
2023-02-13T00:37:50.354Z,973.02
2023-02-13T00:38:50.326Z,973.01
2023-02-13T00:39:50.288Z,973.04
2023-02-13T00:40:50.276Z,973.06
2023-02-13T00:41:50.253Z,973.06
2023-02-13T00:42:50.234Z,973.07
2023-02-13T00:43:50.242Z,973.08
2023-02-13T00:44:50.204Z,973.09
2023-02-13T00:45:50.184Z,973.09
2023-02-13T00:46:50.342Z,973.11
2023-02-13T00:47:50.144Z,973.14
2023-02-13T00:48:50.129Z,973.12
2023-02-13T00:49:50.108Z,973.16
2023-02-13T00:50:50.091Z,973.1
2023-02-13T00:51:50.074Z,973.1
2023-02-13T00:52:50.058Z,973.11
2023-02-13T00:53:50.065Z,973.1
2023-02-13T00:54:50.020Z,973.15
2023-02-13T00:55:50.001Z,973.15
2023-02-13T00:56:49.988Z,973.15
2023-02-13T00:57:49.965Z,973.19
2023-02-13T00:58:49.950Z,973.13
2023-02-13T00:59:51.038Z,973.18
2023-02-13T01:00:49.914Z,973.18
2023-02-13T01:01:49.946Z,973.13
2023-02-13T01:02:49.889Z,973.16
2023-02-13T01:03:49.900Z,973.19
2023-02-13T01:04:49.901Z,973.21
2023-02-13T01:05:49.835Z,973.17
2023-02-13T01:06:49.815Z,973.2
2023-02-13T01:07:49.792Z,973.17
2023-02-13T01:08:49.774Z,973.18
2023-02-13T01:09:49.786Z,973.17
2023-02-13T01:10:49.736Z,973.17
2023-02-13T01:11:49.721Z,973.16
2023-02-13T01:12:49.701Z,973.14
2023-02-13T01:13:49.686Z,973.18
2023-02-13T01:14:49.820Z,973.17
2023-02-13T01:15:49.683Z,973.19
2023-02-13T01:16:49.630Z,973.18
2023-02-13T01:17:49.616Z,973.18
2023-02-13T01:18:49.597Z,973.13
2023-02-13T01:19:49.579Z,973.17
2023-02-13T01:20:49.567Z,973.14
2023-02-13T01:21:49.546Z,973.14
2023-02-13T01:22:49.525Z,973.15
2023-02-13T01:23:49.508Z,973.15
2023-02-13T01:24:49.489Z,973.16
2023-02-13T01:25:49.502Z,973.16
2023-02-13T01:26:49.454Z,973.18
2023-02-13T01:27:49.438Z,973.17
2023-02-13T01:28:49.420Z,973.16
2023-02-13T01:29:49.410Z,973.16
2023-02-13T01:30:49.402Z,973.14
2023-02-13T01:31:49.523Z,973.13
2023-02-13T01:32:49.352Z,973.12
2023-02-13T01:33:49.336Z,973.12
2023-02-13T01:34:49.310Z,973.1
2023-02-13T01:35:49.296Z,973.1
2023-02-13T01:36:49.274Z,973.07
2023-02-13T01:37:49.256Z,973.08
2023-02-13T01:38:49.236Z,973.06
2023-02-13T01:39:49.221Z,973.05
2023-02-13T01:40:49.208Z,973.04
2023-02-13T01:41:49.209Z,973
2023-02-13T01:42:49.177Z,973.02
2023-02-13T01:43:49.148Z,973.02
2023-02-13T01:44:49.126Z,973
2023-02-13T01:45:49.110Z,973.01
2023-02-13T01:46:49.108Z,973.04
2023-02-13T01:47:49.075Z,972.99
2023-02-13T01:48:49.058Z,972.94
2023-02-13T01:49:49.037Z,972.95
2023-02-13T01:50:49.016Z,972.97
2023-02-13T01:51:49.003Z,972.96
2023-02-13T01:52:48.993Z,972.94
2023-02-13T01:53:48.964Z,973
2023-02-13T01:54:48.951Z,973.01
2023-02-13T01:55:48.931Z,973.03
2023-02-13T01:56:48.909Z,973.02
2023-02-13T01:57:48.924Z,972.94
2023-02-13T01:58:48.875Z,972.93
2023-02-13T01:59:48.854Z,972.93
2023-02-13T02:00:49.152Z,972.98
2023-02-13T02:01:49.223Z,972.97
2023-02-13T02:02:49.192Z,972.97
2023-02-13T02:03:49.100Z,972.97
2023-02-13T02:04:49.081Z,972.93
2023-02-13T02:05:49.062Z,972.9
2023-02-13T02:06:49.044Z,972.91
2023-02-13T02:07:49.030Z,972.92
2023-02-13T02:08:49.011Z,972.93
2023-02-13T02:09:49.003Z,972.96
2023-02-13T02:10:48.974Z,972.95
2023-02-13T02:11:48.957Z,972.96
2023-02-13T02:12:48.941Z,972.92
2023-02-13T02:13:48.947Z,972.93
2023-02-13T02:14:48.904Z,972.86
2023-02-13T02:15:48.981Z,972.85
2023-02-13T02:16:48.869Z,972.84
2023-02-13T02:17:48.850Z,972.87
2023-02-13T02:18:48.833Z,972.83
2023-02-13T02:19:48.813Z,972.88
2023-02-13T02:20:48.799Z,972.85
2023-02-13T02:21:48.777Z,972.88
2023-02-13T02:22:48.761Z,972.87
2023-02-13T02:23:48.749Z,972.81
2023-02-13T02:24:48.728Z,972.76
2023-02-13T02:25:48.755Z,972.82
2023-02-13T02:26:48.691Z,972.76
2023-02-13T02:27:48.674Z,972.82
2023-02-13T02:28:48.656Z,972.82
2023-02-13T02:29:48.663Z,972.77
2023-02-13T02:30:48.654Z,972.8
2023-02-13T02:31:48.678Z,972.79
2023-02-13T02:32:48.582Z,972.73
2023-02-13T02:33:48.565Z,972.76
2023-02-13T02:34:48.547Z,972.75
2023-02-13T02:35:48.533Z,972.76
2023-02-13T02:36:48.512Z,972.74
2023-02-13T02:37:48.490Z,972.73
2023-02-13T02:38:48.474Z,972.7
2023-02-13T02:39:48.456Z,972.68
2023-02-13T02:40:48.441Z,972.68
2023-02-13T02:41:48.418Z,972.68
2023-02-13T02:42:48.403Z,972.66
2023-02-13T02:43:48.385Z,972.65
2023-02-13T02:44:48.367Z,972.65
2023-02-13T02:45:48.377Z,972.66
2023-02-13T02:46:48.356Z,972.69
2023-02-13T02:47:48.308Z,972.69
2023-02-13T02:48:48.291Z,972.7
2023-02-13T02:49:48.272Z,972.68
2023-02-13T02:50:48.256Z,972.66
2023-02-13T02:51:48.236Z,972.64
2023-02-13T02:52:48.215Z,972.62
2023-02-13T02:53:48.210Z,972.64
2023-02-13T02:54:48.180Z,972.61
2023-02-13T02:55:48.162Z,972.63
2023-02-13T02:56:48.145Z,972.64
2023-02-13T02:57:48.133Z,972.65
2023-02-13T02:58:48.109Z,972.67
2023-02-13T02:59:48.095Z,972.65
2023-02-13T03:00:48.087Z,972.63
2023-02-13T03:01:48.080Z,972.63
2023-02-13T03:02:48.033Z,972.62
2023-02-13T03:03:48.076Z,972.58
2023-02-13T03:04:47.995Z,972.57
2023-02-13T03:05:47.978Z,972.57
2023-02-13T03:06:47.963Z,972.56
2023-02-13T03:07:47.942Z,972.51
2023-02-13T03:08:47.923Z,972.49
2023-02-13T03:09:47.907Z,972.51
2023-02-13T03:10:47.891Z,972.46
2023-02-13T03:11:47.873Z,972.45
2023-02-13T03:12:47.854Z,972.44
2023-02-13T03:13:47.837Z,972.49
2023-02-13T03:14:47.816Z,972.42
2023-02-13T03:15:47.800Z,972.43
2023-02-13T03:16:47.784Z,972.43
2023-02-13T03:17:47.793Z,972.47
2023-02-13T03:18:47.742Z,972.44
2023-02-13T03:19:47.725Z,972.46
2023-02-13T03:20:47.708Z,972.43
2023-02-13T03:21:47.691Z,972.4
2023-02-13T03:22:47.671Z,972.43
2023-02-13T03:23:47.666Z,972.43
2023-02-13T03:24:47.640Z,972.41
2023-02-13T03:25:47.616Z,972.38
2023-02-13T03:26:47.598Z,972.41
2023-02-13T03:27:47.580Z,972.44
2023-02-13T03:28:47.562Z,972.46
2023-02-13T03:29:47.541Z,972.46
2023-02-13T03:30:47.531Z,972.47
2023-02-13T03:31:47.539Z,972.49
2023-02-13T03:32:47.486Z,972.49
2023-02-13T03:49:57.440Z,972.55
2023-02-13T03:50:57.647Z,972.54
2023-02-13T03:51:57.368Z,972.57
2023-02-13T03:52:57.348Z,972.63
2023-02-13T03:53:57.330Z,972.64
2023-02-13T03:54:57.306Z,972.63
2023-02-13T03:55:57.296Z,972.63
2023-02-13T03:56:57.267Z,972.62
2023-02-13T03:57:57.244Z,972.66
2023-02-13T03:58:57.229Z,972.67
2023-02-13T03:59:57.955Z,972.7
2023-02-13T04:00:58.104Z,972.69
2023-02-13T04:01:57.929Z,972.68
2023-02-13T04:02:57.899Z,972.76
2023-02-13T04:03:57.876Z,972.72
2023-02-13T04:04:57.859Z,972.66
2023-02-13T04:05:57.866Z,972.72
2023-02-13T04:06:57.837Z,972.71
2023-02-13T04:07:57.801Z,972.69
2023-02-13T04:08:57.787Z,972.69
2023-02-13T04:09:57.762Z,972.69
2023-02-13T04:10:58.031Z,972.68
2023-02-13T04:11:57.726Z,972.76
2023-02-13T04:12:57.706Z,972.71
2023-02-13T04:13:57.699Z,972.71
2023-02-13T04:14:57.672Z,972.71
2023-02-13T04:15:57.650Z,972.7
2023-02-13T04:16:57.669Z,972.74
2023-02-13T04:17:57.615Z,972.68
2023-02-13T04:18:57.598Z,972.75
2023-02-13T04:19:57.573Z,972.71
2023-02-13T04:20:57.878Z,972.69
2023-02-13T04:21:57.565Z,972.72
2023-02-13T04:22:57.522Z,972.71
2023-02-13T04:23:57.499Z,972.65
2023-02-13T04:24:57.488Z,972.73
2023-02-13T04:25:57.464Z,972.68
2023-02-13T04:26:57.456Z,972.69
2023-02-13T04:27:57.429Z,972.73
2023-02-13T04:28:57.410Z,972.75
2023-02-13T04:29:57.390Z,972.78
2023-02-13T04:30:57.725Z,972.81
2023-02-13T04:31:57.392Z,972.79
2023-02-13T04:32:58.376Z,972.75
2023-02-13T04:33:58.353Z,972.72
2023-02-13T04:34:58.337Z,972.71
2023-02-13T04:35:58.322Z,972.73
2023-02-13T04:36:58.299Z,972.74
2023-02-13T04:37:58.338Z,972.73
2023-02-13T04:38:58.263Z,972.7
2023-02-13T04:39:58.333Z,972.71
2023-02-13T04:40:58.591Z,972.7
2023-02-13T04:41:58.227Z,972.71
2023-02-13T04:42:58.222Z,972.76
2023-02-13T04:43:58.181Z,972.73
2023-02-13T04:44:58.155Z,972.79
2023-02-13T04:45:58.161Z,972.75
2023-02-13T04:46:58.131Z,972.74
2023-02-13T04:47:58.101Z,972.74
2023-02-13T04:48:58.085Z,972.71
2023-02-13T04:49:58.065Z,972.71
2023-02-13T04:50:58.342Z,972.72
2023-02-13T04:51:58.027Z,972.67
2023-02-13T04:52:58.019Z,972.72
2023-02-13T04:53:58.022Z,972.7
2023-02-13T04:54:57.971Z,972.7
2023-02-13T04:55:57.954Z,972.69
2023-02-13T04:56:57.935Z,972.69
2023-02-13T04:57:57.942Z,972.7
2023-02-13T04:58:57.899Z,972.68
2023-02-13T04:59:57.886Z,972.68
2023-02-13T05:00:58.214Z,972.66
2023-02-13T05:01:57.845Z,972.68
2023-02-13T05:02:57.824Z,972.67
2023-02-13T05:03:57.816Z,972.64
2023-02-13T05:04:57.791Z,972.63
2023-02-13T05:05:57.772Z,972.58
2023-02-13T05:06:57.752Z,972.62
2023-02-13T05:07:57.741Z,972.58
2023-02-13T05:08:57.716Z,972.63
2023-02-13T05:09:57.728Z,972.62
2023-02-13T05:10:57.863Z,972.59
2023-02-13T05:11:57.661Z,972.62
2023-02-13T05:12:57.643Z,972.59
2023-02-13T05:13:57.629Z,972.62
2023-02-13T05:14:58.059Z,972.62
2023-02-13T05:15:58.093Z,972.67
2023-02-13T05:16:58.024Z,972.67
2023-02-13T05:17:58.006Z,972.68
2023-02-13T05:18:58.006Z,972.72
2023-02-13T05:19:57.970Z,972.7
2023-02-13T05:20:58.300Z,972.71
2023-02-13T05:21:57.935Z,972.71
2023-02-13T05:22:57.919Z,972.69
2023-02-13T05:23:57.899Z,972.71
2023-02-13T05:24:57.879Z,972.68
2023-02-13T05:25:57.892Z,972.64
2023-02-13T05:26:57.844Z,972.66
2023-02-13T05:27:57.831Z,972.59
2023-02-13T05:28:57.809Z,972.66
2023-02-13T05:29:57.790Z,972.63
2023-02-13T05:30:58.231Z,972.64
2023-02-13T05:31:57.896Z,972.69
2023-02-13T05:32:57.739Z,972.67
2023-02-13T05:33:57.715Z,972.66
2023-02-13T05:34:57.705Z,972.68
2023-02-13T05:35:57.681Z,972.68
2023-02-13T05:36:57.666Z,972.7
2023-02-13T05:37:57.649Z,972.7
2023-02-13T05:38:57.637Z,972.65
2023-02-13T05:39:57.607Z,972.69
2023-02-13T05:40:57.905Z,972.71
2023-02-13T05:41:57.604Z,972.71
2023-02-13T05:42:57.557Z,972.7
2023-02-13T05:43:57.541Z,972.71
2023-02-13T05:44:57.520Z,972.7
2023-02-13T05:45:58.312Z,972.69
2023-02-13T05:46:58.292Z,972.67
2023-02-13T05:47:58.251Z,972.65
2023-02-13T05:48:58.236Z,972.67
2023-02-13T05:49:58.214Z,972.66
2023-02-13T05:50:58.520Z,972.7
2023-02-13T05:51:58.180Z,972.7
2023-02-13T05:52:58.165Z,972.68
2023-02-13T05:53:58.162Z,972.65
2023-02-13T05:54:58.130Z,972.7
2023-02-13T05:55:58.107Z,972.72
2023-02-13T05:56:58.089Z,972.72
2023-02-13T05:57:58.138Z,972.72
2023-02-13T05:58:58.071Z,972.72
2023-02-13T05:59:58.030Z,972.72
2023-02-13T06:00:58.427Z,972.72
2023-02-13T06:01:57.993Z,972.73
2023-02-13T06:02:58.026Z,972.75
2023-02-13T06:03:59.362Z,972.76
2023-02-13T06:04:58.024Z,972.78
2023-02-13T06:05:57.919Z,972.79
2023-02-13T06:06:57.903Z,972.73
2023-02-13T06:07:57.885Z,972.84
2023-02-13T06:08:57.866Z,972.81
2023-02-13T06:09:57.844Z,972.85
2023-02-13T06:10:58.051Z,972.82
2023-02-13T06:11:57.808Z,972.83
2023-02-13T06:12:57.796Z,972.79
2023-02-13T06:13:57.800Z,972.8
2023-02-13T06:14:57.755Z,972.8
2023-02-13T06:15:57.812Z,972.81
2023-02-13T06:16:57.721Z,972.81
2023-02-13T06:17:57.706Z,972.78
2023-02-13T06:18:57.682Z,972.82
2023-02-13T06:19:57.663Z,972.81
2023-02-13T06:20:57.936Z,972.76
2023-02-13T06:21:57.629Z,972.85
2023-02-13T06:22:57.609Z,972.82
2023-02-13T06:23:57.600Z,972.85
2023-02-13T06:24:57.574Z,972.85
2023-02-13T06:25:57.571Z,972.85
2023-02-13T06:26:57.535Z,972.86
2023-02-13T06:27:57.540Z,972.88
2023-02-13T06:28:57.504Z,972.89
2023-02-13T06:29:57.510Z,972.85
2023-02-13T06:30:57.911Z,972.88
2023-02-13T06:31:57.531Z,972.87
2023-02-13T06:32:57.427Z,972.86
2023-02-13T06:33:57.412Z,972.88
2023-02-13T06:34:57.389Z,972.92
2023-02-13T06:35:57.374Z,972.87
2023-02-13T06:36:57.354Z,972.91
2023-02-13T06:37:57.339Z,972.89
2023-02-13T06:38:57.316Z,972.9
2023-02-13T06:39:57.303Z,972.87
2023-02-13T06:40:57.497Z,972.9
2023-02-13T06:41:57.266Z,972.87
2023-02-13T06:42:57.247Z,972.9
2023-02-13T06:43:57.228Z,972.91
2023-02-13T06:44:57.210Z,972.9
2023-02-13T06:45:57.324Z,972.95
2023-02-13T06:46:57.229Z,972.96
2023-02-13T06:47:57.156Z,972.92
2023-02-13T06:48:57.137Z,972.88
2023-02-13T06:49:57.119Z,972.97
2023-02-13T06:50:57.363Z,972.99
2023-02-13T06:51:57.081Z,973.01
2023-02-13T06:52:57.068Z,972.98
2023-02-13T06:53:57.046Z,973.02
2023-02-13T06:54:57.037Z,973
2023-02-13T06:55:57.013Z,973.01
2023-02-13T06:56:56.991Z,973.06
2023-02-13T06:57:56.978Z,973.05
2023-02-13T06:58:56.961Z,973.08
2023-02-13T06:59:56.937Z,973.15
2023-02-13T07:00:57.249Z,973.13
2023-02-13T07:01:56.939Z,973.14
2023-02-13T07:02:56.904Z,973.16
2023-02-13T07:03:56.864Z,973.16
2023-02-13T07:04:56.846Z,973.18
2023-02-13T07:05:56.832Z,973.25
2023-02-13T07:06:56.812Z,973.22
2023-02-13T07:07:56.792Z,973.23
2023-02-13T07:08:56.773Z,973.22
2023-02-13T07:09:56.758Z,973.2
2023-02-13T07:10:57.014Z,973.17
2023-02-13T07:11:56.721Z,973.15
2023-02-13T07:13:05.168Z,973.18
2023-02-13T07:13:56.684Z,973.19
2023-02-13T07:14:56.668Z,973.2
2023-02-13T07:15:56.706Z,973.24
2023-02-13T07:16:56.644Z,973.28
2023-02-13T07:17:56.640Z,973.24
2023-02-13T07:18:56.594Z,973.24
2023-02-13T07:19:56.595Z,973.25
2023-02-13T07:20:56.898Z,973.24
2023-02-13T07:21:56.540Z,973.21
2023-02-13T07:22:56.524Z,973.26
2023-02-13T07:23:56.507Z,973.24
2023-02-13T07:24:56.490Z,973.21
2023-02-13T07:25:56.471Z,973.23
2023-02-13T07:26:56.452Z,973.19
2023-02-13T07:27:56.434Z,973.19
2023-02-13T07:29:09.341Z,973.22
2023-02-13T07:29:56.396Z,973.25
2023-02-13T07:30:56.879Z,973.27
2023-02-13T07:31:56.407Z,973.23
2023-02-13T07:32:56.347Z,973.25
2023-02-13T07:33:56.364Z,973.24
2023-02-13T07:35:01.892Z,973.21
2023-02-13T07:35:56.294Z,973.2
2023-02-13T07:36:57.280Z,973.18
2023-02-13T07:37:57.260Z,973.19
2023-02-13T07:38:57.946Z,973.2
2023-02-13T07:39:57.926Z,973.16
2023-02-13T07:40:58.177Z,973.17
2023-02-13T07:41:57.890Z,973.19
2023-02-13T07:42:57.876Z,973.16
2023-02-13T07:43:57.858Z,973.13
2023-02-13T07:44:57.840Z,973.15
2023-02-13T07:45:58.121Z,973.15
2023-02-13T07:46:57.855Z,973.16
2023-02-13T07:47:57.790Z,973.14
2023-02-13T07:48:57.800Z,973.13
2023-02-13T07:49:57.752Z,973.1
2023-02-13T07:50:57.957Z,973.1
2023-02-13T07:51:57.718Z,973.1
2023-02-13T07:52:57.703Z,973.1
2023-02-13T07:53:57.824Z,973.14
2023-02-13T07:54:57.673Z,973.14
2023-02-13T07:55:57.998Z,973.1
2023-02-13T07:56:57.636Z,973.08
2023-02-13T07:57:57.624Z,973.15
2023-02-13T07:58:57.598Z,973.16
2023-02-13T07:59:57.585Z,973.1
2023-02-13T08:00:57.837Z,973.17
2023-02-13T08:01:57.922Z,973.16
2023-02-13T08:02:57.802Z,973.12
2023-02-13T08:03:57.819Z,973.16
2023-02-13T08:04:57.802Z,973.17
2023-02-13T08:05:58.015Z,973.17
2023-02-13T08:06:57.736Z,973.16
2023-02-13T08:07:57.719Z,973.14
2023-02-13T08:08:57.699Z,973.14
2023-02-13T08:09:57.688Z,973.15
2023-02-13T08:10:57.665Z,973.14
2023-02-13T08:11:57.649Z,973.13
2023-02-13T08:12:57.630Z,973.13
2023-02-13T08:13:57.622Z,973.1
2023-02-13T08:14:57.596Z,973.09
2023-02-13T08:15:57.821Z,973.11
2023-02-13T08:16:57.560Z,973.13
2023-02-13T08:17:57.544Z,973.1
2023-02-13T08:18:57.528Z,973.12
2023-02-13T08:19:57.518Z,973.08
2023-02-13T08:20:57.515Z,973.08
2023-02-13T08:21:57.574Z,973.06
2023-02-13T08:22:57.456Z,973.07
2023-02-13T08:23:57.437Z,973.07
2023-02-13T08:24:57.788Z,973
2023-02-13T08:25:57.947Z,972.98
2023-02-13T08:26:57.738Z,973.04
2023-02-13T08:27:57.721Z,973.04
2023-02-13T08:28:57.700Z,973
2023-02-13T08:29:57.688Z,973.01
2023-02-13T08:30:57.682Z,973.02
2023-02-13T08:31:57.694Z,972.99
2023-02-13T08:32:57.637Z,973.06
2023-02-13T08:33:57.618Z,973.06
2023-02-13T08:34:57.596Z,973.07
2023-02-13T08:35:57.898Z,973.06
2023-02-13T08:36:57.590Z,973.06
2023-02-13T08:37:57.545Z,973.13
2023-02-13T08:38:57.529Z,973.11
2023-02-13T08:39:57.508Z,973.17
2023-02-13T08:40:57.824Z,973.1
2023-02-13T08:41:57.495Z,973.08
2023-02-13T08:42:57.787Z,973.12
2023-02-13T08:43:57.441Z,973.11
2023-02-13T08:44:58.751Z,973.07
2023-02-13T08:45:57.687Z,973.12
2023-02-13T08:46:57.393Z,973.1
2023-02-13T08:47:57.373Z,973.14
2023-02-13T08:48:57.359Z,973.19
2023-02-13T08:49:57.338Z,973.13
2023-02-13T08:50:57.317Z,973.14
2023-02-13T08:51:57.307Z,973.12
2023-02-13T08:52:57.312Z,973.13
2023-02-13T08:53:57.268Z,973.12
2023-02-13T08:54:57.252Z,973.14
2023-02-13T08:55:57.697Z,973.13
2023-02-13T08:56:57.844Z,973.16
2023-02-13T08:57:57.196Z,973.14
2023-02-13T08:58:57.182Z,973.13
2023-02-13T08:59:57.164Z,973.14
2023-02-13T09:00:57.205Z,973.17
2023-02-13T09:01:57.126Z,973.18
2023-02-13T09:02:57.159Z,973.21
2023-02-13T09:03:57.101Z,973.22
2023-02-13T09:04:57.077Z,973.2
2023-02-13T09:05:57.388Z,973.2
2023-02-13T09:06:57.043Z,973.2
2023-02-13T09:07:57.038Z,973.25
2023-02-13T09:08:57.037Z,973.25
2023-02-13T09:09:56.990Z,973.25
2023-02-13T09:10:56.978Z,973.19
2023-02-13T09:11:56.960Z,973.26
2023-02-13T09:12:56.958Z,973.23
2023-02-13T09:13:56.922Z,973.25
2023-02-13T09:14:56.906Z,973.24
2023-02-13T09:15:57.120Z,973.22
2023-02-13T09:16:56.954Z,973.23
2023-02-13T09:17:56.891Z,973.25
2023-02-13T09:18:56.840Z,973.3
2023-02-13T09:19:56.821Z,973.24
2023-02-13T09:20:56.806Z,973.27
2023-02-13T09:21:56.800Z,973.26
2023-02-13T09:22:56.775Z,973.29
2023-02-13T09:23:56.754Z,973.29
2023-02-13T09:24:56.768Z,973.26
2023-02-13T09:25:57.040Z,973.33
2023-02-13T09:26:56.705Z,973.37
2023-02-13T09:27:56.688Z,973.34
2023-02-13T09:28:56.673Z,973.34
2023-02-13T09:29:56.655Z,973.34
2023-02-13T09:30:56.825Z,973.3
2023-02-13T09:31:56.728Z,973.34
2023-02-13T09:32:56.605Z,973.35
2023-02-13T09:33:56.594Z,973.33
2023-02-13T09:34:56.572Z,973.32
2023-02-13T09:35:56.849Z,973.29
2023-02-13T09:36:56.538Z,973.33
2023-02-13T09:37:56.582Z,973.32
2023-02-13T09:38:56.503Z,973.27
2023-02-13T09:39:56.491Z,973.28
2023-02-13T09:40:56.512Z,973.29
2023-02-13T09:41:56.452Z,973.33
2023-02-13T09:42:56.439Z,973.29
2023-02-13T09:43:56.424Z,973.28
2023-02-13T09:44:56.406Z,973.28
2023-02-13T09:45:56.892Z,973.22
2023-02-13T09:46:56.374Z,973.21
2023-02-13T09:47:56.357Z,973.22
2023-02-13T09:48:56.338Z,973.24
2023-02-13T09:49:56.322Z,973.22
2023-02-13T09:50:56.303Z,973.23
2023-02-13T09:51:56.292Z,973.24
2023-02-13T09:52:56.280Z,973.23
2023-02-13T09:53:56.254Z,973.26
2023-02-13T09:54:56.237Z,973.25
2023-02-13T09:55:56.565Z,973.26
2023-02-13T09:56:56.231Z,973.23
2023-02-13T09:57:56.189Z,973.28
2023-02-13T09:58:56.169Z,973.25
2023-02-13T09:59:56.156Z,973.28
2023-02-13T10:00:56.136Z,973.25
2023-02-13T10:01:56.179Z,973.25
2023-02-13T10:02:56.106Z,973.27
2023-02-13T10:03:56.093Z,973.25
2023-02-13T10:04:56.158Z,973.31
2023-02-13T10:05:56.433Z,973.26
2023-02-13T10:06:56.047Z,973.32
2023-02-13T10:07:56.021Z,973.34
2023-02-13T10:08:56.006Z,973.34
2023-02-13T10:09:55.990Z,973.35
2023-02-13T10:10:55.971Z,973.39
2023-02-13T10:11:55.956Z,973.38
2023-02-13T10:12:56.078Z,973.36
2023-02-13T10:13:55.925Z,973.39
2023-02-13T10:14:55.905Z,973.4
2023-02-13T10:15:56.343Z,973.39
2023-02-13T10:16:55.873Z,973.41
2023-02-13T10:17:55.858Z,973.4
2023-02-13T10:18:55.844Z,973.42
2023-02-13T10:19:55.826Z,973.44
2023-02-13T10:20:55.814Z,973.41
2023-02-13T10:21:55.795Z,973.42
2023-02-13T10:22:55.773Z,973.43
2023-02-13T10:23:55.762Z,973.41
2023-02-13T10:24:55.742Z,973.41
2023-02-13T10:25:55.888Z,973.44
2023-02-13T10:26:55.713Z,973.47
2023-02-13T10:27:55.695Z,973.41
2023-02-13T10:28:55.704Z,973.4
2023-02-13T10:29:55.665Z,973.41
2023-02-13T10:30:55.799Z,973.4
2023-02-13T10:31:55.729Z,973.43
2023-02-13T10:32:55.614Z,973.41
2023-02-13T10:33:55.598Z,973.37
2023-02-13T10:34:55.581Z,973.41
2023-02-13T10:35:56.349Z,973.35
2023-02-13T10:36:56.746Z,973.32
2023-02-13T10:37:56.737Z,973.33
2023-02-13T10:38:56.713Z,973.32
2023-02-13T10:39:56.697Z,973.35
2023-02-13T10:40:56.677Z,973.33
2023-02-13T10:41:56.660Z,973.34
2023-02-13T10:42:56.648Z,973.34
2023-02-13T10:43:56.642Z,973.31
2023-02-13T10:44:56.688Z,973.3
2023-02-13T10:45:56.857Z,973.32
2023-02-13T10:46:56.671Z,973.32
2023-02-13T10:47:56.582Z,973.33
2023-02-13T10:48:56.554Z,973.35
2023-02-13T10:49:56.533Z,973.27
2023-02-13T10:50:56.520Z,973.28
2023-02-13T10:51:56.501Z,973.25
2023-02-13T10:52:56.501Z,973.2
2023-02-13T10:53:56.470Z,973.25
2023-02-13T10:54:56.460Z,973.23
2023-02-13T10:55:56.846Z,973.23
2023-02-13T10:56:56.424Z,973.24
2023-02-13T10:57:56.408Z,973.24
2023-02-13T10:58:56.392Z,973.22
2023-02-13T10:59:56.380Z,973.24
2023-02-13T11:00:56.448Z,973.16
2023-02-13T11:01:56.410Z,973.16
2023-02-13T11:02:56.328Z,973.19
2023-02-13T11:03:56.421Z,973.13
2023-02-13T11:04:56.297Z,973.18
2023-02-13T11:05:56.638Z,973.11
2023-02-13T11:06:56.265Z,973.14
2023-02-13T11:07:56.250Z,973.11
2023-02-13T11:08:56.234Z,973.09
2023-02-13T11:09:56.219Z,973.09
2023-02-13T11:10:56.212Z,973.04
2023-02-13T11:11:56.187Z,973.04
2023-02-13T11:12:56.172Z,973.05
2023-02-13T11:13:56.157Z,973.04
2023-02-13T11:14:56.147Z,973.01
2023-02-13T11:15:56.413Z,972.96
2023-02-13T11:16:56.138Z,972.97
2023-02-13T11:17:56.101Z,972.94
2023-02-13T11:18:56.083Z,972.91
2023-02-13T11:19:56.067Z,972.89
2023-02-13T11:20:56.057Z,972.88
2023-02-13T11:21:56.035Z,972.86
2023-02-13T11:22:56.050Z,972.86
2023-02-13T11:23:56.001Z,972.9
2023-02-13T11:24:55.995Z,972.86
2023-02-13T11:25:56.265Z,972.82
2023-02-13T11:26:55.964Z,972.81
2023-02-13T11:27:55.944Z,972.82
2023-02-13T11:28:55.960Z,972.79
2023-02-13T11:29:55.914Z,972.83
2023-02-13T11:30:56.007Z,972.85
2023-02-13T11:31:55.999Z,972.82
2023-02-13T11:32:55.909Z,972.83
2023-02-13T11:33:57.975Z,972.86
2023-02-13T11:34:55.839Z,972.89
2023-02-13T11:35:56.112Z,972.83
2023-02-13T11:36:55.812Z,972.84
2023-02-13T11:37:55.797Z,972.89
2023-02-13T11:38:55.780Z,972.91
2023-02-13T11:39:55.768Z,972.91
2023-02-13T11:40:55.753Z,972.86
2023-02-13T11:41:55.737Z,972.87
2023-02-13T11:42:55.720Z,972.87
2023-02-13T11:43:55.711Z,972.87
2023-02-13T11:44:55.698Z,972.87
2023-02-13T11:45:55.730Z,972.9
2023-02-13T11:46:55.727Z,972.86
2023-02-13T11:47:55.649Z,972.89
2023-02-13T11:48:55.664Z,972.89
2023-02-13T11:49:55.628Z,972.83
2023-02-13T11:50:55.605Z,972.87
2023-02-13T11:51:55.592Z,972.83
2023-02-13T11:52:55.576Z,972.86
2023-02-13T11:53:55.566Z,972.88
2023-02-13T11:54:55.549Z,972.88
2023-02-13T11:55:56.082Z,972.87
2023-02-13T11:57:10.841Z,972.82
2023-02-13T11:57:56.177Z,972.87
2023-02-13T11:58:56.212Z,972.87
2023-02-13T11:59:56.155Z,972.85
2023-02-13T12:00:56.135Z,972.86
2023-02-13T12:01:56.121Z,972.82
2023-02-13T12:02:56.223Z,972.84
2023-02-13T12:03:56.130Z,972.79
2023-02-13T12:04:56.111Z,972.8
2023-02-13T12:05:56.422Z,972.87
2023-02-13T12:06:56.066Z,972.83
2023-02-13T12:07:56.038Z,972.8
2023-02-13T12:08:56.031Z,972.81
2023-02-13T12:09:56.020Z,972.8
2023-02-13T12:10:55.993Z,972.78
2023-02-13T12:11:55.979Z,972.84
2023-02-13T12:12:55.966Z,972.83
2023-02-13T12:13:55.956Z,972.85
2023-02-13T12:14:55.943Z,972.81
2023-02-13T12:15:56.393Z,972.82
2023-02-13T12:16:55.948Z,972.79
2023-02-13T12:17:55.909Z,972.75
2023-02-13T12:18:55.914Z,972.76
2023-02-13T12:19:55.867Z,972.72
2023-02-13T12:20:56.288Z,972.72
2023-02-13T12:21:55.836Z,972.71
2023-02-13T12:22:55.826Z,972.74
2023-02-13T12:23:55.807Z,972.68
2023-02-13T12:24:55.808Z,972.66
2023-02-13T12:25:55.847Z,972.7
2023-02-13T12:26:55.769Z,972.67
2023-02-13T12:27:55.751Z,972.71
2023-02-13T12:28:55.759Z,972.66
2023-02-13T12:29:55.729Z,972.61
2023-02-13T12:30:57.096Z,972.63
2023-02-13T12:31:56.632Z,972.64
2023-02-13T12:32:56.556Z,972.63
2023-02-13T12:33:56.561Z,972.63
2023-02-13T12:34:56.531Z,972.64
2023-02-13T12:35:56.610Z,972.65
2023-02-13T12:36:56.529Z,972.63
2023-02-13T12:37:56.512Z,972.63
2023-02-13T12:38:56.480Z,972.61
2023-02-13T12:39:56.458Z,972.59
2023-02-13T12:40:56.829Z,972.53
2023-02-13T12:41:56.428Z,972.58
2023-02-13T12:42:56.422Z,972.58
2023-02-13T12:43:56.399Z,972.57
2023-02-13T12:44:56.389Z,972.53
2023-02-13T12:45:56.403Z,972.53
2023-02-13T12:46:56.360Z,972.51
2023-02-13T12:47:56.344Z,972.53